Nearby METAR Reports

 

KCNI - Canton/Cherokee, Georgia, USA
Distance from station: S 22mi, 36km
Updated: Sun, Jun-24-2018 7:55pm EDT
Overcast
Overcast
 Wind from calm
Wind: Calm
Temperature: 79°F , 26°C
Dew Point: 66°F , 19°C
Humidity: 65%
Barometer: 30.06 inHg , 1017.9 hPa
Clouds: Overcast
Visibility: 10 miles , 16 km
Cloud details: Partly cloudy 3700 ft
Mostly cloudy 4900 ft
Overcast 11000 ft
2018/06/24 23:55 KCNI 242355Z AUTO 00000KT 10SM SCT037 BKN049 OVC110 26/19 A3006 RMK AO2
KDNN - Dalton, Georgia, USA
Distance from station: WNW 24mi, 39km
Updated: Sun, Jun-24-2018 7:55pm EDT
Clear
Clear
 Wind from calm
Wind: Calm
Temperature: 75°F , 24°C
Dew Point: 68°F , 20°C
Humidity: 78%
Barometer: 30.04 inHg , 1017.3 hPa
Clouds: Clear
2018/06/24 23:55 KDNN 242355Z AUTO 00000KT CLR 24/20 A3004 RMK AO2 LTG DSNT SE PWINO
 
KVPC - Cartersville, Georgia, USA
Distance from station: SSW 42mi, 67km
Updated: Sun, Jun-24-2018 7:53pm EDT
Partly cloudy
Partly cloudy
 Wind from calm
Wind: Calm
Temperature: 88°F , 31°C
Heat Index: 96°F , 36°C
Dew Point: 73°F , 23°C
Humidity: 62%
Barometer: 30.01 inHg , 1016.3 hPa
Clouds: Partly cloudy
Visibility: 10 miles , 16 km
Cloud details: Partly cloudy 4500 ft
2018/06/24 23:53 KVPC 242353Z AUTO 00000KT 10SM SCT045 31/23 A3001 RMK AO2 LTG DSNT NE SLP149 T03060233 10322 20300 53004
KGVL - Gainesville, Georgia, USA
Distance from station: SE 43mi, 70km
Updated: Sun, Jun-24-2018 8:07pm EDT
Partly cloudy
Partly cloudy
 Wind from NNW
Wind: NNW 9 mph , 15 km/h
Temperature: 79°F , 26°C
Dew Point: 66°F , 19°C
Humidity: 65%
Barometer: 30.08 inHg , 1018.6 hPa
Clouds: Partly cloudy
Visibility: 10 miles , 16 km
Cloud details: Few Clouds 3300 ft
Partly cloudy 10000 ft
Partly cloudy 12000 ft
2018/06/25 00:07 KGVL 250007Z AUTO 33008KT 10SM FEW033 SCT100 SCT120 26/19 A3008 RMK AO2 LTG DSNT NE T02610189 $
 
KRYY - Marietta Mccolum, Georgia, USA
Distance from station: S 44mi, 70km
Updated: Sun, Jun-24-2018 7:48pm EDT
Clear
Clear
 Wind from W
Wind: W 6 mph , 9 km/h
Temperature: 88°F , 31°C
Heat Index: 95°F , 35°C
Dew Point: 72°F , 22°C
Humidity: 59%
Barometer: 30.03 inHg , 1016.9 hPa
Clouds: Clear
Visibility: 10 miles , 16 km
2018/06/24 23:48 KRYY 242348Z 27005KT 10SM CLR 31/22 A3003 RMK AO2 LTG DSNT NE SLP889 T03110222 10328 20311 53002
KRMG - Rome, Georgia, USA
Distance from station: WSW 45mi, 73km
Updated: Sun, Jun-24-2018 7:53pm EDT
Clear
Clear
 
Temperature: 90°F , 32°C
Heat Index: 101°F , 38°C
Dew Point: 75°F , 24°C
Humidity: 63%
Barometer: 29.99 inHg , 1015.6 hPa
Clouds: Clear
Visibility: 10 miles , 16 km
2018/06/24 23:53 KRMG 242353Z AUTO 10SM CLR 32/24 A2999 RMK AO2 SLP146 60003 T03220239 10339 20261 53003 $
 
KMGE - Dobbins Afb/Mari, Georgia, USA
Distance from station: S 50mi, 80km
Updated: Sun, Jun-24-2018 7:56pm EDT
Mostly cloudy
Mostly cloudy
 Wind from WNW
Wind: WNW 6 mph , 9 km/h
Temperature: 88°F , 31°C
Heat Index: 95°F , 35°C
Dew Point: 72°F , 22°C
Humidity: 59%
Barometer: 30.01 inHg , 1016.3 hPa
Clouds: Mostly cloudy
Visibility: 10 miles , 16 km
Cloud details: Few Clouds 4500 ft
Mostly cloudy 25000 ft
2018/06/24 23:56 KMGE 242356Z 30005KT 10SM FEW045CB BKN250 31/22 A3001 RMK AO2A CB 17SE MOV E SLP151 60000 T03090216 10325 20284 55001 $